Time;durP1;ratioP1;P1;durP2;ratioP2;P2;SDS_P1;SDS_P2;PMS_P1;PMS_P2;Temp;Humidity;BMP_temperature;BMP_pressure;BME280_temperature;BME280_humidity;BME280_pressure;Samples;Min_cycle;Max_cycle;Signal;HPM_P1;HPM_P2
2023/05/28 00:01:55;;;;;;;22.95;17.05;;;;;;;;;;6198748;28;20050;-90
2023/05/28 00:04:57;;;;;;;23.75;16.95;;;;;;;;;;6197907;28;20095;-89
2023/05/28 00:08:00;;;;;;;25.25;17.25;;;;;;;;;;6196026;28;20200;-90
2023/05/28 00:11:04;;;;;;;22.60;18.67;;;;;;;;;;6197869;28;20086;-90
2023/05/28 00:14:05;;;;;;;;;;;;;;;;;;6200096;28;20065;-87
2023/05/28 00:17:07;;;;;;;23.17;18.70;;;;;;;;;;6196424;28;20166;-88
2023/05/28 00:20:10;;;;;;;22.83;17.45;;;;;;;;;;6198676;28;20038;-87
2023/05/28 00:23:12;;;;;;;21.48;16.38;;;;;;;;;;6197279;28;20070;-88
2023/05/28 00:26:16;;;;;;;20.73;16.33;;;;;;;;;;6197684;28;20062;-89
2023/05/28 00:29:17;;;;;;;21.13;15.68;;;;;;;;;;6197084;28;20058;-87
2023/05/28 00:32:19;;;;;;;21.13;16.45;;;;;;;;;;6197118;28;20058;-88
2023/05/28 00:35:21;;;;;;;21.52;16.02;;;;;;;;;;6198004;28;20062;-88
2023/05/28 00:38:23;;;;;;;23.27;17.02;;;;;;;;;;6197185;28;20057;-89
2023/05/28 00:41:26;;;;;;;20.23;16.40;;;;;;;;;;6199363;28;20114;-88
2023/05/28 00:44:28;;;;;;;19.00;15.43;;;;;;;;;;6198940;28;20046;-90
2023/05/28 00:47:30;;;;;;;20.23;16.20;;;;;;;;;;6199452;28;20054;-90
2023/05/28 00:50:32;;;;;;;18.00;15.48;;;;;;;;;;6198292;28;20058;-88
2023/05/28 00:53:34;;;;;;;18.70;15.45;;;;;;;;;;6196689;28;20054;-90
2023/05/28 00:56:37;;;;;;;20.25;16.08;;;;;;;;;;6196312;28;20047;-91
2023/05/28 00:59:39;;;;;;;18.85;15.45;;;;;;;;;;6181079;28;20062;-90
2023/05/28 01:02:40;;;;;;;22.08;16.50;;;;;;;;;;6172169;28;20062;-88
2023/05/28 01:05:42;;;;;;;21.33;16.17;;;;;;;;;;6173784;28;20067;-90
2023/05/28 01:08:44;;;;;;;20.80;16.83;;;;;;;;;;6170977;28;20055;-89
2023/05/28 01:11:49;;;;;;;22.70;16.48;;;;;;;;;;6172453;28;20050;-88
2023/05/28 01:14:51;;;;;;;20.98;15.75;;;;;;;;;;6172500;28;20053;-89
2023/05/28 01:17:57;;;;;;;18.48;14.82;;;;;;;;;;6170363;28;20097;-89
2023/05/28 01:21:00;;;;;;;21.10;15.93;;;;;;;;;;6167714;28;20059;-88
2023/05/28 01:24:04;;;;;;;22.10;16.67;;;;;;;;;;6175811;28;20093;-90
2023/05/28 01:27:05;;;;;;;21.38;16.85;;;;;;;;;;6174097;28;20051;-89
2023/05/28 01:30:09;;;;;;;22.33;15.63;;;;;;;;;;6170696;28;20109;-90
2023/05/28 01:33:11;;;;;;;;;;;;;;;;;;6170380;28;20066;-89
2023/05/28 01:36:20;;;;;;;20.08;15.98;;;;;;;;;;6174194;28;19964;-91
2023/05/28 01:39:25;;;;;;;21.02;16.42;;;;;;;;;;6185949;28;20054;-89
2023/05/28 01:42:28;;;;;;;22.00;15.75;;;;;;;;;;6194437;28;20097;-89
2023/05/28 01:45:31;;;;;;;21.52;16.48;;;;;;;;;;6198905;28;20054;-87
2023/05/28 01:48:33;;;;;;;24.02;16.50;;;;;;;;;;6196329;28;20054;-89
2023/05/28 01:51:35;;;;;;;20.15;16.50;;;;;;;;;;6195332;28;20279;-89
2023/05/28 01:54:38;;;;;;;19.20;14.93;;;;;;;;;;6194701;28;20054;-90
2023/05/28 01:57:40;;;;;;;19.92;15.48;;;;;;;;;;6179261;28;20106;-87
2023/05/28 02:00:46;;;;;;;19.88;14.90;;;;;;;;;;6195548;28;20058;-90
2023/05/28 02:03:48;;;;;;;20.48;15.63;;;;;;;;;;6180616;28;20130;-89
2023/05/28 02:06:50;;;;;;;19.17;15.13;;;;;;;;;;6188242;28;20054;-89
2023/05/28 02:09:54;;;;;;;18.85;15.82;;;;;;;;;;6170925;28;20058;-90
2023/05/28 02:12:55;;;;;;;;;;;;;;;;;;6159492;28;20051;-88
2023/05/28 02:15:57;;;;;;;19.65;14.88;;;;;;;;;;6171116;28;19922;-88
2023/05/28 02:19:00;;;;;;;24.63;16.42;;;;;;;;;;6174338;28;20834;-88
2023/05/28 02:22:03;;;;;;;17.80;15.05;;;;;;;;;;6171665;28;20059;-89
2023/05/28 02:25:07;;;;;;;19.88;15.07;;;;;;;;;;6176767;28;20047;-88
2023/05/28 02:28:10;;;;;;;18.52;14.27;;;;;;;;;;6174013;28;20335;-90
2023/05/28 02:31:11;;;;;;;20.38;15.38;;;;;;;;;;6181432;28;20094;-89
2023/05/28 02:34:13;;;;;;;22.17;15.18;;;;;;;;;;6196059;28;20104;-88
2023/05/28 02:37:15;;;;;;;22.08;16.73;;;;;;;;;;6197716;28;20104;-87
2023/05/28 02:40:18;;;;;;;19.52;15.50;;;;;;;;;;6198675;28;20050;-88
2023/05/28 02:43:20;;;;;;;21.85;15.50;;;;;;;;;;6182353;28;20405;-88
2023/05/28 02:46:22;;;;;;;19.90;15.80;;;;;;;;;;6197447;28;20331;-88
2023/05/28 02:49:23;;;;;;;21.35;15.10;;;;;;;;;;6197983;28;20141;-90
2023/05/28 02:52:25;;;;;;;22.98;16.50;;;;;;;;;;6194145;28;20058;-90
2023/05/28 02:55:28;;;;;;;18.35;15.40;;;;;;;;;;6181740;28;20117;-89
2023/05/28 02:58:32;;;;;;;22.23;16.00;;;;;;;;;;6197082;28;20116;-89
2023/05/28 03:01:34;;;;;;;19.38;15.55;;;;;;;;;;6197920;28;20042;-87
2023/05/28 03:04:36;;;;;;;20.08;14.88;;;;;;;;;;6195735;28;20086;-87
2023/05/28 03:07:38;;;;;;;17.65;14.35;;;;;;;;;;6197028;28;20101;-89
2023/05/28 03:10:41;;;;;;;19.98;15.25;;;;;;;;;;6195686;28;20054;-89
2023/05/28 03:13:43;;;;;;;19.23;14.25;;;;;;;;;;6194982;28;20046;-89
2023/05/28 03:16:44;;;;;;;18.15;13.85;;;;;;;;;;6192144;28;20351;-89
2023/05/28 03:19:46;;;;;;;18.35;14.57;;;;;;;;;;6196409;28;20117;-88
2023/05/28 03:22:50;;;;;;;17.52;13.85;;;;;;;;;;6192095;28;20034;-88
2023/05/28 03:25:53;;;;;;;21.50;14.70;;;;;;;;;;6192687;28;20101;-87
2023/05/28 03:28:55;;;;;;;16.67;13.95;;;;;;;;;;6191499;28;20054;-88
2023/05/28 03:31:57;;;;;;;22.35;15.55;;;;;;;;;;6193738;28;20070;-90
2023/05/28 03:35:00;;;;;;;18.40;14.55;;;;;;;;;;6196663;28;20058;-89
2023/05/28 03:38:02;;;;;;;20.55;14.45;;;;;;;;;;6199382;28;20065;-89
2023/05/28 03:41:05;;;;;;;18.10;14.73;;;;;;;;;;6199480;28;20080;-89
2023/05/28 03:44:07;;;;;;;17.92;14.55;;;;;;;;;;6198820;28;20046;-90
2023/05/28 03:47:09;;;;;;;18.88;14.95;;;;;;;;;;6200575;28;20051;-89
2023/05/28 03:50:11;;;;;;;18.17;14.35;;;;;;;;;;6197999;28;20054;-89
2023/05/28 03:53:13;;;;;;;17.60;14.27;;;;;;;;;;6182093;28;20097;-89
2023/05/28 03:56:16;;;;;;;18.05;14.27;;;;;;;;;;6200195;28;20063;-91
2023/05/28 03:59:18;;;;;;;18.65;14.18;;;;;;;;;;6181555;28;20122;-88
2023/05/28 04:02:20;;;;;;;17.88;13.05;;;;;;;;;;6199843;28;20066;-88
2023/05/28 04:05:21;;;;;;;17.33;13.63;;;;;;;;;;6199371;28;20058;-91
2023/05/28 04:08:23;;;;;;;17.58;13.73;;;;;;;;;;6196874;28;20073;-87
2023/05/28 04:11:28;;;;;;;14.88;12.90;;;;;;;;;;6198928;28;20055;-86
2023/05/28 04:14:30;;;;;;;17.00;13.23;;;;;;;;;;6198765;28;20413;-86
2023/05/28 04:17:32;;;;;;;13.10;11.27;;;;;;;;;;6196155;28;20065;-90
2023/05/28 04:20:35;;;;;;;16.50;12.43;;;;;;;;;;6196990;28;20122;-86
2023/05/28 04:23:37;;;;;;;14.48;11.02;;;;;;;;;;6195932;28;20145;-87
2023/05/28 04:26:40;;;;;;;19.33;12.27;;;;;;;;;;6168225;28;20054;-87
2023/05/28 04:29:43;;;;;;;18.15;11.82;;;;;;;;;;6198941;28;20330;-87
2023/05/28 04:32:45;;;;;;;16.83;11.93;;;;;;;;;;6196110;28;20271;-86
2023/05/28 04:35:47;;;;;;;16.75;12.50;;;;;;;;;;6198005;28;20069;-81
2023/05/28 04:38:49;;;;;;;15.05;11.32;;;;;;;;;;6198412;28;20076;-80
2023/05/28 04:41:53;;;;;;;17.00;12.23;;;;;;;;;;6196817;28;20062;-85
2023/05/28 04:44:54;;;;;;;18.20;12.60;;;;;;;;;;6187228;28;20098;-83
2023/05/28 04:47:57;;;;;;;15.88;11.82;;;;;;;;;;6171708;28;20118;-80
2023/05/28 04:50:59;;;;;;;17.05;11.85;;;;;;;;;;6181107;28;20061;-81
2023/05/28 04:54:01;;;;;;;16.67;11.70;;;;;;;;;;6178343;28;20065;-78
2023/05/28 04:57:05;;;;;;;14.55;11.18;;;;;;;;;;6174698;28;20054;-79
2023/05/28 05:00:12;;;;;;;;;;;;;;;;;;6174895;28;20342;-79
2023/05/28 05:03:14;;;;;;;15.55;11.40;;;;;;;;;;6175391;28;19933;-80
2023/05/28 05:06:16;;;;;;;15.70;11.65;;;;;;;;;;6171695;28;20046;-86
2023/05/28 05:09:19;;;;;;;15.23;11.18;;;;;;;;;;6174001;28;20058;-87
2023/05/28 05:12:22;;;;;;;14.88;11.95;;;;;;;;;;6189778;28;20053;-86
2023/05/28 05:15:24;;;;;;;15.60;11.32;;;;;;;;;;6174758;28;20054;-88
2023/05/28 05:18:26;;;;;;;13.93;11.95;;;;;;;;;;6172813;28;20051;-86
2023/05/28 05:21:27;;;;;;;16.92;11.30;;;;;;;;;;6172634;28;20335;-86
2023/05/28 05:24:29;;;;;;;16.38;11.75;;;;;;;;;;6175748;28;20397;-88
2023/05/28 05:27:35;;;;;;;15.70;11.57;;;;;;;;;;6172851;28;20043;-86
2023/05/28 05:30:37;;;;;;;14.88;11.55;;;;;;;;;;6171552;28;20073;-87
2023/05/28 05:33:40;;;;;;;14.82;11.52;;;;;;;;;;6172868;28;20382;-86
2023/05/28 05:36:42;;;;;;;16.20;11.65;;;;;;;;;;6169864;28;20334;-85
2023/05/28 05:39:43;;;;;;;13.15;10.63;;;;;;;;;;6174051;28;20062;-85
2023/05/28 05:42:46;;;;;;;13.48;11.05;;;;;;;;;;6167558;28;20074;-86
2023/05/28 05:45:48;;;;;;;15.43;11.38;;;;;;;;;;6168815;28;20100;-87
2023/05/28 05:48:50;;;;;;;14.45;11.07;;;;;;;;;;6171023;28;20050;-86
2023/05/28 05:51:51;;;;;;;13.25;10.93;;;;;;;;;;6185941;28;20429;-87
2023/05/28 05:54:53;;;;;;;14.05;9.90;;;;;;;;;;6169718;28;20196;-87
2023/05/28 05:57:58;;;;;;;14.60;10.93;;;;;;;;;;6170766;28;20074;-86
2023/05/28 06:01:00;;;;;;;14.30;10.95;;;;;;;;;;6184433;28;20453;-86
2023/05/28 06:04:02;;;;;;;16.67;11.20;;;;;;;;;;6166848;28;20058;-82
2023/05/28 06:07:06;;;;;;;14.60;11.23;;;;;;;;;;6168705;28;20508;-88
2023/05/28 06:10:08;;;;;;;12.35;10.38;;;;;;;;;;6189247;28;20054;-90
2023/05/28 06:13:12;;;;;;;12.52;10.00;;;;;;;;;;6180957;28;20055;-88
2023/05/28 06:16:14;;;;;;;11.98;9.40;;;;;;;;;;6156140;28;20077;-89
2023/05/28 06:19:16;;;;;;;12.85;10.45;;;;;;;;;;6171606;28;20103;-90
2023/05/28 06:22:18;;;;;;;12.70;10.07;;;;;;;;;;6189577;28;20593;-91
2023/05/28 06:25:21;;;;;;;12.07;9.93;;;;;;;;;;6194220;28;20061;-88
2023/05/28 06:28:24;;;;;;;10.98;9.73;;;;;;;;;;6177516;28;20354;-89
2023/05/28 06:31:26;;;;;;;12.55;10.05;;;;;;;;;;6196510;28;20046;-88
2023/05/28 06:34:27;;;;;;;11.25;10.02;;;;;;;;;;6197710;28;20068;-92
2023/05/28 06:37:29;;;;;;;14.65;9.45;;;;;;;;;;6197468;28;20046;-91
2023/05/28 06:40:31;;;;;;;12.57;9.48;;;;;;;;;;6195973;28;20058;-90
2023/05/28 06:43:35;;;;;;;13.50;9.90;;;;;;;;;;6195062;28;20064;-91
2023/05/28 06:46:37;;;;;;;15.70;10.15;;;;;;;;;;6193185;28;20054;-91
2023/05/28 06:49:38;;;;;;;11.73;8.63;;;;;;;;;;6195732;28;20055;-91
2023/05/28 06:52:40;;;;;;;10.35;8.35;;;;;;;;;;6195336;28;20097;-91
2023/05/28 06:55:42;;;;;;;12.98;8.85;;;;;;;;;;6175832;28;20068;-89
2023/05/28 06:58:46;;;;;;;12.30;8.20;;;;;;;;;;6193041;28;20246;-89
2023/05/28 07:01:47;;;;;;;12.50;7.68;;;;;;;;;;6195086;28;20494;-91
2023/05/28 07:04:50;;;;;;;11.65;7.35;;;;;;;;;;6195210;28;20065;-88
2023/05/28 07:07:52;;;;;;;10.68;7.47;;;;;;;;;;6194647;28;20078;-92
2023/05/28 07:10:54;;;;;;;10.52;7.68;;;;;;;;;;6193103;28;20065;-89
2023/05/28 07:13:58;;;;;;;8.65;6.90;;;;;;;;;;6193891;28;20283;-89
2023/05/28 07:16:59;;;;;;;;;;;;;;;;;;6177147;28;20054;-89
2023/05/28 07:20:01;;;;;;;10.40;7.03;;;;;;;;;;6177422;28;19933;-79
2023/05/28 07:23:04;;;;;;;11.23;7.80;;;;;;;;;;6192568;28;20140;-82
2023/05/28 07:26:06;;;;;;;9.95;7.47;;;;;;;;;;6193039;28;20082;-83
2023/05/28 07:29:09;;;;;;;9.60;7.30;;;;;;;;;;6194703;28;20263;-82
2023/05/28 07:32:10;;;;;;;12.43;8.13;;;;;;;;;;6192295;28;20250;-81
2023/05/28 07:35:12;;;;;;;11.60;8.13;;;;;;;;;;6193779;28;20050;-79
2023/05/28 07:38:14;;;;;;;12.80;8.45;;;;;;;;;;6193244;28;20062;-83
2023/05/28 07:41:15;;;;;;;10.38;7.82;;;;;;;;;;6194277;28;20139;-81
2023/05/28 07:44:19;;;;;;;7.93;6.65;;;;;;;;;;6192346;28;20055;-81
2023/05/28 07:47:21;;;;;;;18.38;8.45;;;;;;;;;;6190173;28;20065;-80
2023/05/28 07:50:22;;;;;;;14.10;8.50;;;;;;;;;;6186967;28;20069;-81
2023/05/28 07:53:24;;;;;;;13.85;7.95;;;;;;;;;;6194370;28;20097;-82
2023/05/28 07:56:26;;;;;;;12.02;8.00;;;;;;;;;;6191817;28;20050;-80
2023/05/28 07:59:30;;;;;;;12.23;8.77;;;;;;;;;;6195625;28;20065;-79
2023/05/28 08:02:31;;;;;;;;;;;;;;;;;;6189626;28;20051;-81
2023/05/28 08:05:33;;;;;;;10.93;8.23;;;;;;;;;;6167561;28;19926;-81
2023/05/28 08:08:35;;;;;;;10.77;8.40;;;;;;;;;;6168428;28;20042;-78
2023/05/28 08:11:37;;;;;;;12.70;8.85;;;;;;;;;;6168878;28;20343;-80
2023/05/28 08:14:40;;;;;;;10.75;8.32;;;;;;;;;;6168237;28;20114;-80
2023/05/28 08:17:41;;;;;;;10.63;7.95;;;;;;;;;;6169655;28;20339;-80
2023/05/28 08:20:43;;;;;;;9.95;7.15;;;;;;;;;;6183607;28;20350;-79
2023/05/28 08:23:44;;;;;;;11.20;7.72;;;;;;;;;;6173679;28;20093;-79
2023/05/28 08:26:46;;;;;;;11.57;7.47;;;;;;;;;;6169727;28;20053;-79
2023/05/28 08:29:49;;;;;;;11.07;7.85;;;;;;;;;;6173659;28;20098;-82
2023/05/28 08:32:51;;;;;;;9.85;7.15;;;;;;;;;;6172950;28;20098;-83
2023/05/28 08:35:53;;;;;;;9.57;7.88;;;;;;;;;;6172042;28;20251;-82
2023/05/28 08:38:54;;;;;;;8.55;7.10;;;;;;;;;;6171643;28;20126;-80
2023/05/28 08:41:56;;;;;;;12.93;10.00;;;;;;;;;;6172365;28;20102;-83
2023/05/28 08:44:59;;;;;;;10.07;8.32;;;;;;;;;;6171903;28;20142;-82
2023/05/28 08:48:00;;;;;;;;;;;;;;;;;;6172676;28;20063;-82
2023/05/28 08:51:03;;;;;;;10.43;9.05;;;;;;;;;;6175775;28;20217;-82
2023/05/28 08:54:04;;;;;;;11.57;9.32;;;;;;;;;;6173389;28;20055;-81
2023/05/28 08:57:06;;;;;;;12.82;8.90;;;;;;;;;;6176398;28;20043;-80
2023/05/28 09:00:11;;;;;;;11.50;8.90;;;;;;;;;;6171307;28;20058;-80
2023/05/28 09:03:13;;;;;;;10.40;8.65;;;;;;;;;;6170953;28;20272;-82
2023/05/28 09:06:15;;;;;;;13.10;8.90;;;;;;;;;;6175573;28;20595;-82
2023/05/28 09:09:17;;;;;;;11.85;8.02;;;;;;;;;;6174433;28;20098;-81
2023/05/28 09:12:22;;;;;;;13.60;8.57;;;;;;;;;;6171729;28;20059;-81
2023/05/28 09:15:26;;;;;;;10.55;8.82;;;;;;;;;;6172855;28;20915;-80
2023/05/28 09:18:27;;;;;;;9.93;7.90;;;;;;;;;;6170990;28;20085;-79
2023/05/28 09:21:29;;;;;;;9.68;8.50;;;;;;;;;;6173822;28;20054;-82
2023/05/28 09:24:33;;;;;;;9.80;8.40;;;;;;;;;;6178069;28;20042;-80
2023/05/28 09:27:35;;;;;;;12.18;10.23;;;;;;;;;;6181458;28;20062;-79
2023/05/28 09:30:38;;;;;;;9.35;7.72;;;;;;;;;;6172700;28;20089;-79
2023/05/28 09:33:43;;;;;;;10.23;9.05;;;;;;;;;;6182978;28;20430;-76
2023/05/28 09:36:45;;;;;;;10.10;8.15;;;;;;;;;;6175133;28;20543;-78
2023/05/28 09:39:46;;;;;;;14.38;9.00;;;;;;;;;;6170704;28;20070;-82
2023/05/28 09:42:51;;;;;;;10.43;8.25;;;;;;;;;;6176675;28;21212;-83
2023/05/28 09:46:06;;;;;;;9.80;8.02;;;;;;;;;;6179050;28;20523;-79
2023/05/28 09:49:08;;;;;;;9.35;8.20;;;;;;;;;;6170597;28;20330;-81
2023/05/28 09:52:10;;;;;;;15.13;12.17;;;;;;;;;;6170798;28;20244;-81
2023/05/28 09:55:14;;;;;;;14.50;12.00;;;;;;;;;;6169759;28;20043;-79
2023/05/28 09:58:17;;;;;;;13.77;11.43;;;;;;;;;;6172882;28;20050;-80
2023/05/28 10:01:24;;;;;;;15.27;11.30;;;;;;;;;;6192903;28;20117;-81
2023/05/28 10:04:32;;;;;;;12.57;10.73;;;;;;;;;;6187849;28;20058;-79
2023/05/28 10:07:34;;;;;;;13.18;9.80;;;;;;;;;;6169902;28;20096;-79
2023/05/28 10:10:36;;;;;;;14.20;10.85;;;;;;;;;;6190400;28;20053;-81
2023/05/28 10:13:38;;;;;;;12.38;11.07;;;;;;;;;;6195441;28;20279;-80
2023/05/28 10:16:41;;;;;;;11.87;10.30;;;;;;;;;;6189075;28;20043;-80
2023/05/28 10:19:45;;;;;;;14.45;11.18;;;;;;;;;;6172446;28;20055;-83
2023/05/28 10:22:47;;;;;;;13.73;12.27;;;;;;;;;;6174823;28;20049;-83
2023/05/28 10:25:48;;;;;;;12.57;10.30;;;;;;;;;;6180551;28;20050;-80
2023/05/28 10:28:55;;;;;;;13.02;10.98;;;;;;;;;;6172014;28;20047;-82
2023/05/28 10:32:01;;;;;;;12.77;10.40;;;;;;;;;;6171838;28;20114;-81
2023/05/28 10:35:04;;;;;;;11.52;9.55;;;;;;;;;;6195486;28;20113;-84
2023/05/28 10:38:06;;;;;;;15.23;11.73;;;;;;;;;;6193082;28;20050;-81
2023/05/28 10:41:08;;;;;;;11.75;9.85;;;;;;;;;;6180534;28;20283;-79
2023/05/28 10:44:10;;;;;;;15.63;11.00;;;;;;;;;;6174186;28;20425;-77
2023/05/28 10:47:16;;;;;;;15.73;11.38;;;;;;;;;;6172513;28;20071;-80
2023/05/28 10:50:20;;;;;;;12.63;9.70;;;;;;;;;;6173226;28;20058;-82
2023/05/28 10:53:22;;;;;;;10.13;9.10;;;;;;;;;;6163410;28;20066;-81
2023/05/28 10:56:26;;;;;;;10.23;8.75;;;;;;;;;;6166703;28;20110;-81
2023/05/28 10:59:37;;;;;;;11.38;9.27;;;;;;;;;;6167983;28;20066;-76
2023/05/28 11:02:43;;;;;;;10.25;8.57;;;;;;;;;;6169873;28;20065;-76
2023/05/28 11:05:45;;;;;;;9.40;8.40;;;;;;;;;;6165328;28;20069;-77
2023/05/28 11:08:47;;;;;;;;;;;;;;;;;;6169927;28;20046;-80
2023/05/28 11:11:48;;;;;;;11.17;8.67;;;;;;;;;;6183273;28;19929;-84
2023/05/28 11:14:50;;;;;;;8.25;7.40;;;;;;;;;;6193745;28;20468;-82
2023/05/28 11:17:53;;;;;;;9.52;7.40;;;;;;;;;;6192442;28;20085;-76
2023/05/28 11:21:04;;;;;;;10.77;8.57;;;;;;;;;;6194859;28;20050;-76
2023/05/28 11:24:06;;;;;;;10.88;9.15;;;;;;;;;;6193248;28;20062;-76
2023/05/28 11:27:09;;;;;;;8.30;7.22;;;;;;;;;;6194923;28;20058;-77
2023/05/28 11:30:13;;;;;;;11.82;9.15;;;;;;;;;;6196293;28;20330;-80
2023/05/28 11:33:16;;;;;;;10.52;8.82;;;;;;;;;;6195085;28;20361;-76
2023/05/28 11:36:19;;;;;;;10.57;9.27;;;;;;;;;;6173806;28;20054;-84
2023/05/28 11:39:21;;;;;;;10.15;7.72;;;;;;;;;;6181749;28;20105;-77
2023/05/28 11:42:24;;;;;;;9.05;6.97;;;;;;;;;;6193949;28;20058;-77
2023/05/28 11:45:26;;;;;;;9.27;8.20;;;;;;;;;;6195421;28;20063;-77
2023/05/28 11:48:29;;;;;;;10.82;9.27;;;;;;;;;;6194130;28;20089;-83
2023/05/28 11:51:31;;;;;;;10.05;7.95;;;;;;;;;;6190637;28;20197;-79
2023/05/28 11:54:32;;;;;;;11.55;8.23;;;;;;;;;;6191969;28;20333;-82
2023/05/28 11:57:38;;;;;;;12.25;8.73;;;;;;;;;;6201188;28;20105;-81
2023/05/28 12:00:40;;;;;;;11.95;9.18;;;;;;;;;;6200205;28;20060;-81
2023/05/28 12:03:43;;;;;;;8.68;7.60;;;;;;;;;;6201779;28;20302;-82
2023/05/28 12:06:52;;;;;;;10.45;7.53;;;;;;;;;;6199864;28;20064;-81
2023/05/28 12:10:03;;;;;;;9.00;8.07;;;;;;;;;;6201109;28;20302;-81
2023/05/28 12:13:06;;;;;;;8.70;7.13;;;;;;;;;;6201413;28;20357;-79
2023/05/28 12:16:09;;;;;;;8.27;7.32;;;;;;;;;;6200635;28;20054;-80
2023/05/28 12:19:14;;;;;;;9.18;6.80;;;;;;;;;;6198719;28;20109;-81
2023/05/28 12:22:18;;;;;;;11.13;8.00;;;;;;;;;;6201746;28;20050;-81
2023/05/28 12:25:20;;;;;;;11.82;8.68;;;;;;;;;;6199366;28;20066;-81
2023/05/28 12:28:22;;;;;;;10.52;8.40;;;;;;;;;;6200454;28;20058;-81
2023/05/28 12:31:28;;;;;;;9.65;7.35;;;;;;;;;;6200879;28;20401;-81
2023/05/28 12:34:31;;;;;;;8.20;6.78;;;;;;;;;;6198220;28;20362;-81
2023/05/28 12:37:32;;;;;;;8.98;6.82;;;;;;;;;;6201221;28;20292;-81
2023/05/28 12:40:34;;;;;;;7.72;6.60;;;;;;;;;;6197736;28;20049;-81
2023/05/28 12:43:36;;;;;;;11.10;6.97;;;;;;;;;;6200750;28;20112;-80
2023/05/28 12:46:38;;;;;;;7.90;6.32;;;;;;;;;;6200732;28;20361;-81
2023/05/28 12:49:41;;;;;;;6.95;5.93;;;;;;;;;;6200383;28;20056;-81
2023/05/28 12:52:43;;;;;;;7.20;6.50;;;;;;;;;;6202980;28;20108;-80
2023/05/28 12:55:45;;;;;;;7.18;6.47;;;;;;;;;;6199891;28;20350;-81
2023/05/28 12:58:46;;;;;;;7.70;6.45;;;;;;;;;;6199663;28;20117;-81
2023/05/28 13:01:48;;;;;;;;;;;;;;;;;;6198421;28;20266;-81
2023/05/28 13:04:51;;;;;;;7.70;5.47;;;;;;;;;;6200329;28;20005;-81
2023/05/28 13:07:53;;;;;;;8.13;5.60;;;;;;;;;;6198122;28;20057;-81
2023/05/28 13:10:54;;;;;;;7.28;5.78;;;;;;;;;;6199031;28;20061;-81
2023/05/28 13:13:56;;;;;;;;;;;;;;;;;;6194156;28;20223;-81
2023/05/28 13:16:58;;;;;;;7.13;5.73;;;;;;;;;;6193403;28;19918;-79
2023/05/28 13:20:04;;;;;;;7.88;6.03;;;;;;;;;;6193034;28;20058;-80
2023/05/28 13:23:05;;;;;;;8.13;5.93;;;;;;;;;;6195501;28;20047;-82
2023/05/28 13:26:07;;;;;;;8.40;6.38;;;;;;;;;;6192510;28;20481;-83
2023/05/28 13:29:09;;;;;;;6.63;5.47;;;;;;;;;;6194640;28;20093;-77
2023/05/28 13:32:11;;;;;;;6.70;6.00;;;;;;;;;;6193122;28;20140;-84
2023/05/28 13:35:14;;;;;;;;;;;;;;;;;;6193320;28;20054;-80
2023/05/28 13:38:16;;;;;;;6.80;5.85;;;;;;;;;;6196042;28;19932;-81
2023/05/28 13:41:18;;;;;;;6.47;5.28;;;;;;;;;;6194651;28;20054;-81
2023/05/28 13:44:20;;;;;;;7.07;5.70;;;;;;;;;;6193541;28;20120;-80
2023/05/28 13:47:21;;;;;;;;;;;;;;;;;;6196690;28;20093;-83
2023/05/28 13:50:25;;;;;;;10.52;6.93;;;;;;;;;;6194538;28;20210;-82
2023/05/28 13:53:27;;;;;;;9.45;7.22;;;;;;;;;;6193262;28;20610;-82
2023/05/28 13:56:28;;;;;;;6.50;5.70;;;;;;;;;;6194098;28;20055;-82
2023/05/28 13:59:31;;;;;;;8.80;6.95;;;;;;;;;;6195295;28;20278;-82
2023/05/28 14:02:32;;;;;;;7.40;6.70;;;;;;;;;;6196056;28;21183;-84
2023/05/28 14:05:36;;;;;;;;;;;;;;;;;;6192770;28;20250;-84
2023/05/28 14:08:37;;;;;;;9.65;7.35;;;;;;;;;;6194452;28;20222;-83
2023/05/28 14:11:39;;;;;;;7.40;6.60;;;;;;;;;;6194581;28;20058;-82
2023/05/28 14:14:41;;;;;;;8.55;6.32;;;;;;;;;;6194046;28;20300;-81
2023/05/28 14:17:42;;;;;;;11.55;6.70;;;;;;;;;;6190298;28;20043;-77
2023/05/28 14:20:46;;;;;;;9.55;6.35;;;;;;;;;;6193027;28;20089;-82
2023/05/28 14:23:47;;;;;;;7.55;6.78;;;;;;;;;;6193759;28;20047;-80
2023/05/28 14:26:49;;;;;;;10.55;8.13;;;;;;;;;;6193166;28;20054;-82
2023/05/28 14:29:51;;;;;;;10.25;6.22;;;;;;;;;;6192599;28;20042;-82
2023/05/28 14:32:52;;;;;;;9.38;7.72;;;;;;;;;;6192669;28;20096;-80
2023/05/28 14:35:55;;;;;;;8.07;6.78;;;;;;;;;;6194776;28;20392;-77
2023/05/28 14:38:57;;;;;;;9.00;8.10;;;;;;;;;;6194460;28;20286;-80
2023/05/28 14:41:59;;;;;;;12.52;7.22;;;;;;;;;;6192080;28;20212;-79
2023/05/28 14:45:00;;;;;;;14.35;8.32;;;;;;;;;;6195132;28;20057;-81
2023/05/28 14:48:02;;;;;;;10.68;8.05;;;;;;;;;;6196821;28;20242;-79
2023/05/28 14:51:06;;;;;;;11.37;7.00;;;;;;;;;;6195779;28;20184;-78
2023/05/28 14:54:08;;;;;;;9.10;7.32;;;;;;;;;;6195048;28;20208;-81
2023/05/28 14:57:10;;;;;;;12.00;7.37;;;;;;;;;;6197945;28;20133;-80
2023/05/28 15:00:13;;;;;;;9.93;7.13;;;;;;;;;;6195820;28;20113;-81
2023/05/28 15:03:15;;;;;;;11.68;7.03;;;;;;;;;;6197514;28;20082;-81
2023/05/28 15:06:18;;;;;;;10.38;6.80;;;;;;;;;;6196365;28;20050;-80
2023/05/28 15:09:20;;;;;;;7.28;6.32;;;;;;;;;;6197730;28;20130;-80
2023/05/28 15:12:22;;;;;;;11.35;7.75;;;;;;;;;;6198683;28;20334;-81
2023/05/28 15:15:24;;;;;;;10.63;8.15;;;;;;;;;;6198865;28;20057;-81
2023/05/28 15:18:26;;;;;;;11.40;7.93;;;;;;;;;;6189463;28;20054;-81
2023/05/28 15:21:30;;;;;;;11.13;8.37;;;;;;;;;;6193216;28;21064;-80
2023/05/28 15:24:32;;;;;;;11.13;7.20;;;;;;;;;;6190914;28;20076;-80
2023/05/28 15:27:33;;;;;;;11.13;7.37;;;;;;;;;;6193170;28;20081;-80
2023/05/28 15:30:36;;;;;;;12.23;9.73;;;;;;;;;;6190346;28;20689;-80
2023/05/28 15:33:38;;;;;;;10.85;8.50;;;;;;;;;;6189720;28;20042;-80
2023/05/28 15:36:41;;;;;;;10.37;8.10;;;;;;;;;;6192649;28;20084;-79
2023/05/28 15:39:44;;;;;;;9.75;8.00;;;;;;;;;;6191456;28;20330;-79
2023/05/28 15:42:46;;;;;;;14.23;9.30;;;;;;;;;;6192300;28;20050;-79
2023/05/28 15:45:48;;;;;;;14.77;9.20;;;;;;;;;;6193186;28;20062;-79
2023/05/28 15:48:50;;;;;;;11.45;9.27;;;;;;;;;;6191480;28;20077;-79
2023/05/28 15:51:53;;;;;;;11.15;8.60;;;;;;;;;;6193532;28;20353;-79
2023/05/28 15:54:55;;;;;;;12.60;8.63;;;;;;;;;;6191065;28;20204;-79
2023/05/28 15:57:57;;;;;;;11.10;9.13;;;;;;;;;;6189919;28;20050;-80
2023/05/28 16:00:59;;;;;;;12.15;9.02;;;;;;;;;;6190570;28;20101;-79
2023/05/28 16:04:01;;;;;;;11.57;8.55;;;;;;;;;;6193320;28;20074;-79
2023/05/28 16:07:04;;;;;;;10.53;8.40;;;;;;;;;;6190510;28;20077;-80
2023/05/28 16:10:07;;;;;;;15.63;8.65;;;;;;;;;;6187829;28;20062;-80
2023/05/28 16:13:10;;;;;;;8.43;7.10;;;;;;;;;;6191106;28;20054;-79
2023/05/28 16:16:13;;;;;;;13.52;8.18;;;;;;;;;;6189106;28;20105;-80
2023/05/28 16:19:15;;;;;;;10.73;7.07;;;;;;;;;;6189264;28;20284;-80
2023/05/28 16:22:19;;;;;;;10.23;7.35;;;;;;;;;;6188824;28;20061;-80
2023/05/28 16:25:21;;;;;;;9.95;7.90;;;;;;;;;;6191053;28;20142;-80
2023/05/28 16:28:25;;;;;;;12.55;8.38;;;;;;;;;;6187924;28;20239;-80
2023/05/28 16:31:27;;;;;;;12.43;9.38;;;;;;;;;;6187136;28;20063;-80
2023/05/28 16:34:30;;;;;;;11.68;9.07;;;;;;;;;;6188143;28;20254;-80
2023/05/28 16:37:34;;;;;;;10.40;7.90;;;;;;;;;;6189388;28;20121;-80
2023/05/28 16:40:37;;;;;;;9.43;7.07;;;;;;;;;;6188898;28;20058;-79
2023/05/28 16:43:39;;;;;;;9.98;7.25;;;;;;;;;;6192530;28;20066;-79
2023/05/28 16:46:41;;;;;;;11.10;7.75;;;;;;;;;;6195005;28;20053;-80
2023/05/28 16:49:43;;;;;;;11.55;8.13;;;;;;;;;;6195624;28;20062;-79
2023/05/28 16:52:46;;;;;;;12.48;8.23;;;;;;;;;;6192381;28;20065;-80
2023/05/28 16:55:48;;;;;;;10.77;7.78;;;;;;;;;;6192199;28;20121;-79
2023/05/28 16:58:50;;;;;;;9.68;8.32;;;;;;;;;;6193120;28;20096;-80
2023/05/28 17:01:53;;;;;;;10.30;7.15;;;;;;;;;;6192143;28;20415;-79
2023/05/28 17:04:55;;;;;;;12.07;7.55;;;;;;;;;;6170614;28;20354;-79
2023/05/28 17:07:58;;;;;;;10.43;7.07;;;;;;;;;;6167740;28;20066;-79
2023/05/28 17:10:59;;;;;;;;;;;;;;;;;;6169465;28;20077;-79
2023/05/28 17:14:01;;;;;;;11.82;8.27;;;;;;;;;;6168372;28;19936;-79
2023/05/28 17:17:03;;;;;;;12.43;8.73;;;;;;;;;;6168294;28;20058;-79
2023/05/28 17:20:07;;;;;;;11.52;8.65;;;;;;;;;;6167162;28;20113;-79
2023/05/28 17:23:10;;;;;;;13.48;9.13;;;;;;;;;;6167369;28;20058;-77
2023/05/28 17:26:14;;;;;;;14.48;8.77;;;;;;;;;;6169315;28;22674;-73
2023/05/28 17:29:16;;;;;;;15.68;9.63;;;;;;;;;;6168984;28;20058;-76
2023/05/28 17:32:18;;;;;;;13.25;9.18;;;;;;;;;;6169687;28;21563;-75
2023/05/28 17:35:20;;;;;;;12.90;9.23;;;;;;;;;;6194080;28;20070;-74
2023/05/28 17:38:23;;;;;;;11.27;8.77;;;;;;;;;;6189309;28;20075;-82
2023/05/28 17:41:24;;;;;;;14.48;10.20;;;;;;;;;;6182129;28;20133;-84
2023/05/28 17:44:26;;;;;;;12.35;9.95;;;;;;;;;;6171087;28;20098;-83
2023/05/28 17:47:28;;;;;;;15.18;10.30;;;;;;;;;;6170049;28;20067;-82
2023/05/28 17:50:30;;;;;;;16.35;9.65;;;;;;;;;;6170766;28;20054;-82
2023/05/28 17:53:33;;;;;;;17.70;10.88;;;;;;;;;;6167563;28;20054;-78
2023/05/28 17:56:35;;;;;;;;;;;;;;;;;;6180068;28;20062;-82
2023/05/28 17:59:37;;;;;;;11.85;9.32;;;;;;;;;;6192993;28;19926;-78